createdAt,value
2023-04-22T00:01:24.593Z,12.75
2023-04-22T00:03:27.095Z,12.72
2023-04-22T00:05:28.869Z,12.68
2023-04-22T00:07:30.541Z,12.67
2023-04-22T00:09:32.059Z,12.62
2023-04-22T00:11:33.543Z,12.62
2023-04-22T00:13:35.336Z,12.60
2023-04-22T00:15:36.919Z,12.57
2023-04-22T00:17:38.747Z,12.56
2023-04-22T00:19:41.612Z,12.51
2023-04-22T00:21:43.235Z,12.49
2023-04-22T00:23:45.431Z,12.47
2023-04-22T00:25:46.978Z,12.48
2023-04-22T00:27:48.515Z,12.48
2023-04-22T00:29:50.011Z,12.46
2023-04-22T00:31:51.715Z,12.46
2023-04-22T00:33:53.168Z,12.48
2023-04-22T00:35:54.886Z,12.45
2023-04-22T00:37:56.545Z,12.47
2023-04-22T00:39:58.065Z,12.48
2023-04-22T00:42:00.323Z,12.45
2023-04-22T00:44:01.907Z,12.47
2023-04-22T00:46:03.984Z,12.44
2023-04-22T00:48:05.836Z,12.43
2023-04-22T00:50:08.244Z,12.38
2023-04-22T00:52:09.747Z,12.36
2023-04-22T00:54:11.227Z,12.35
2023-04-22T00:56:13.235Z,12.33
2023-04-22T00:58:14.909Z,12.31
2023-04-22T01:00:17.062Z,12.27
2023-04-22T01:02:19.304Z,12.26
2023-04-22T01:04:21.927Z,12.26
2023-04-22T01:06:24.332Z,12.23
2023-04-22T01:08:29.728Z,12.21
2023-04-22T01:10:31.226Z,12.16
2023-04-22T01:12:32.835Z,12.11
2023-04-22T01:14:35.018Z,12.11
2023-04-22T01:16:39.014Z,12.09
2023-04-22T01:18:40.565Z,12.05
2023-04-22T01:20:42.083Z,12.04
2023-04-22T01:22:45.682Z,12.01
2023-04-22T01:24:47.433Z,11.94
2023-04-22T01:26:49.264Z,11.93
2023-04-22T01:28:51.191Z,11.90
2023-04-22T01:30:52.896Z,11.86
2023-04-22T01:32:55.012Z,11.82
2023-04-22T01:34:56.830Z,11.75
2023-04-22T01:36:58.425Z,11.67
2023-04-22T01:39:00.342Z,11.61
2023-04-22T01:41:02.802Z,11.60
2023-04-22T01:43:05.165Z,11.59
2023-04-22T01:45:07.596Z,11.59
2023-04-22T01:47:09.150Z,11.58
2023-04-22T01:49:10.727Z,11.56
2023-04-22T01:51:12.199Z,11.54
2023-04-22T01:53:13.759Z,11.50
2023-04-22T01:55:15.743Z,11.47
2023-04-22T01:57:17.699Z,11.44
2023-04-22T01:59:20.595Z,11.41
2023-04-22T02:01:22.243Z,11.36
2023-04-22T02:03:24.124Z,11.32
2023-04-22T02:05:26.317Z,11.29
2023-04-22T02:07:27.805Z,11.27
2023-04-22T02:09:29.322Z,11.24
2023-04-22T02:11:30.842Z,11.20
2023-04-22T02:13:37.314Z,11.18
2023-04-22T02:15:40.392Z,11.15
2023-04-22T02:17:43.435Z,11.12
2023-04-22T02:19:45.045Z,11.09
2023-04-22T02:21:46.537Z,11.07
2023-04-22T02:23:48.057Z,11.02
2023-04-22T02:25:50.772Z,10.99
2023-04-22T02:27:52.291Z,10.97
2023-04-22T02:29:53.767Z,10.93
2023-04-22T02:31:55.368Z,10.90
2023-04-22T02:33:56.880Z,10.88
2023-04-22T02:35:58.435Z,10.86
2023-04-22T02:37:59.901Z,10.83
2023-04-22T02:40:01.394Z,10.82
2023-04-22T02:42:02.972Z,10.77
2023-04-22T02:44:04.438Z,10.75
2023-04-22T02:46:06.271Z,10.75
2023-04-22T02:48:08.136Z,10.72
2023-04-22T02:50:10.387Z,10.68
2023-04-22T02:52:11.885Z,10.67
2023-04-22T02:54:13.328Z,10.65
2023-04-22T02:56:14.789Z,10.62
2023-04-22T02:58:16.282Z,10.61
2023-04-22T03:00:17.899Z,10.59
2023-04-22T03:02:19.573Z,10.60
2023-04-22T03:04:22.033Z,10.58
2023-04-22T03:06:23.703Z,10.58
2023-04-22T03:08:25.745Z,10.57
2023-04-22T03:10:27.226Z,10.56
2023-04-22T03:12:28.741Z,10.56
2023-04-22T03:14:30.211Z,10.55
2023-04-22T03:16:31.682Z,10.55
2023-04-22T03:18:33.261Z,10.53
2023-04-22T03:20:35.624Z,10.53
2023-04-22T03:22:37.449Z,10.53
2023-04-22T03:24:38.952Z,10.52
2023-04-22T03:26:40.475Z,10.52
2023-04-22T03:28:41.945Z,10.53
2023-04-22T03:30:43.472Z,10.51
2023-04-22T03:32:45.071Z,10.51
2023-04-22T03:34:46.638Z,10.50
2023-04-22T03:36:48.104Z,10.47
2023-04-22T03:38:50.055Z,10.46
2023-04-22T03:40:51.788Z,10.46
2023-04-22T03:42:53.346Z,10.44
2023-04-22T03:44:55.237Z,10.43
2023-04-22T03:46:56.721Z,10.42
2023-04-22T03:48:58.517Z,10.41
2023-04-22T03:50:59.975Z,10.39
2023-04-22T03:53:01.425Z,10.37
2023-04-22T03:55:02.989Z,10.35
2023-04-22T03:57:04.525Z,10.36
2023-04-22T03:59:06.026Z,10.34
2023-04-22T04:01:07.898Z,10.33
2023-04-22T04:03:09.634Z,10.32
2023-04-22T04:05:11.716Z,10.31
2023-04-22T04:07:13.756Z,10.30
2023-04-22T04:09:15.476Z,10.28
2023-04-22T04:11:17.041Z,10.27
2023-04-22T04:13:18.536Z,10.26
2023-04-22T04:15:21.331Z,10.24
2023-04-22T04:17:25.782Z,10.25
2023-04-22T04:19:27.433Z,10.25
2023-04-22T04:21:29.456Z,10.25
2023-04-22T04:23:31.001Z,10.25
2023-04-22T04:25:37.911Z,10.24
2023-04-22T04:27:39.528Z,10.22
2023-04-22T04:29:42.242Z,10.21
2023-04-22T04:31:44.070Z,10.22
2023-04-22T04:33:46.740Z,10.19
2023-04-22T04:35:48.595Z,10.17
2023-04-22T04:37:50.838Z,10.16
2023-04-22T04:39:52.341Z,10.15
2023-04-22T04:41:55.235Z,10.15
2023-04-22T04:43:56.903Z,10.13
2023-04-22T04:45:58.538Z,10.16
2023-04-22T04:48:00.685Z,10.15
2023-04-22T04:50:05.292Z,10.15
2023-04-22T04:52:10.119Z,10.19
2023-04-22T04:54:11.698Z,10.26
2023-04-22T04:56:13.454Z,10.36
2023-04-22T04:58:14.962Z,10.48
2023-04-22T05:00:17.128Z,10.58
2023-04-22T05:02:18.782Z,10.67
2023-04-22T05:04:20.554Z,10.74
2023-04-22T05:06:22.520Z,10.78
2023-04-22T05:08:24.128Z,10.79
2023-04-22T05:10:25.710Z,10.82
2023-04-22T05:12:27.224Z,10.85
2023-04-22T05:14:28.780Z,10.89
2023-04-22T05:16:30.538Z,10.91
2023-04-22T05:18:32.191Z,10.96
2023-04-22T05:20:35.879Z,11.04
2023-04-22T05:22:37.938Z,11.09
2023-04-22T05:24:39.400Z,11.12
2023-04-22T05:26:41.317Z,11.18
2023-04-22T05:28:42.808Z,11.23
2023-04-22T05:30:45.408Z,11.26
2023-04-22T05:32:46.949Z,11.29
2023-04-22T05:34:48.465Z,11.37
2023-04-22T05:36:49.961Z,11.43
2023-04-22T05:38:51.433Z,11.49
2023-04-22T05:40:52.941Z,11.55
2023-04-22T05:42:54.428Z,11.58
2023-04-22T05:44:56.052Z,11.64
2023-04-22T05:46:57.501Z,11.69
2023-04-22T05:48:59.029Z,11.78
2023-04-22T05:51:00.530Z,11.84
2023-04-22T05:53:01.991Z,11.91
2023-04-22T05:55:03.691Z,11.98
2023-04-22T05:57:05.406Z,12.09
2023-04-22T05:59:06.975Z,12.19
2023-04-22T06:01:09.623Z,12.27
2023-04-22T06:03:11.274Z,12.38
2023-04-22T06:05:13.195Z,12.48
2023-04-22T06:07:14.779Z,12.54
2023-04-22T06:09:16.281Z,12.63
2023-04-22T06:11:18.161Z,12.68
2023-04-22T06:13:19.650Z,12.70
2023-04-22T06:15:21.449Z,12.73
2023-04-22T06:17:23.175Z,12.76
2023-04-22T06:19:24.815Z,12.80
2023-04-22T06:21:26.767Z,12.82
2023-04-22T06:23:28.317Z,12.81
2023-04-22T06:25:30.565Z,12.82
2023-04-22T06:27:44.091Z,12.82
2023-04-22T06:29:50.647Z,12.83
2023-04-22T06:31:53.389Z,12.82
2023-04-22T06:33:54.942Z,12.81
2023-04-22T06:35:56.569Z,12.81
2023-04-22T06:37:58.070Z,12.81
2023-04-22T06:39:59.540Z,12.84
2023-04-22T06:42:02.439Z,12.82
2023-04-22T06:44:03.955Z,12.84
2023-04-22T06:46:05.623Z,12.84
2023-04-22T06:48:07.088Z,12.85
2023-04-22T06:50:09.704Z,12.84
2023-04-22T06:52:11.775Z,12.86
2023-04-22T06:54:13.416Z,12.86
2023-04-22T06:56:15.681Z,12.87
2023-04-22T06:58:17.192Z,12.86
2023-04-22T07:00:18.728Z,12.89
2023-04-22T07:02:20.680Z,12.93
2023-04-22T07:04:22.272Z,12.95
2023-04-22T07:06:24.175Z,13.01
2023-04-22T07:08:25.653Z,13.09
2023-04-22T07:10:27.216Z,13.18
2023-04-22T07:12:28.736Z,13.28
2023-04-22T07:14:30.229Z,13.39
2023-04-22T07:16:31.802Z,13.49
2023-04-22T07:18:35.447Z,13.57
2023-04-22T07:20:36.914Z,13.64
2023-04-22T07:22:38.365Z,13.73
2023-04-22T07:24:40.951Z,13.81
2023-04-22T07:26:45.282Z,13.88
2023-04-22T07:28:46.758Z,13.94
2023-04-22T07:30:48.716Z,13.99
2023-04-22T07:32:50.279Z,14.03
2023-04-22T07:34:51.736Z,14.05
2023-04-22T07:36:53.574Z,14.16
2023-04-22T07:38:55.329Z,14.27
2023-04-22T07:40:56.856Z,14.35
2023-04-22T07:42:58.318Z,14.41
2023-04-22T07:44:59.814Z,14.48
2023-04-22T07:47:01.274Z,14.55
2023-04-22T07:49:02.743Z,14.62
2023-04-22T07:51:04.489Z,14.72
2023-04-22T07:53:06.166Z,14.79
2023-04-22T07:55:08.397Z,14.84
2023-04-22T07:57:10.027Z,14.91
2023-04-22T07:59:11.504Z,15.04
2023-04-22T08:01:12.982Z,15.14
2023-04-22T08:03:14.814Z,15.24
2023-04-22T08:05:16.520Z,15.34
2023-04-22T08:07:32.521Z,15.44
2023-04-22T08:09:34.719Z,15.51
2023-04-22T08:11:36.372Z,15.58
2023-04-22T08:13:37.824Z,15.65
2023-04-22T08:15:40.014Z,15.74
2023-04-22T08:17:41.660Z,15.81
2023-04-22T08:19:43.184Z,15.89
2023-04-22T08:21:44.759Z,15.88
2023-04-22T08:23:46.311Z,15.90
2023-04-22T08:25:48.416Z,15.98
2023-04-22T08:27:51.431Z,16.07
2023-04-22T08:29:52.887Z,16.17
2023-04-22T08:31:54.364Z,16.26
2023-04-22T08:33:55.990Z,16.39
2023-04-22T08:35:57.668Z,16.47
2023-04-22T08:37:59.130Z,16.58
2023-04-22T08:40:00.759Z,16.73
2023-04-22T08:42:02.495Z,16.85
2023-04-22T08:44:05.559Z,16.99
2023-04-22T08:46:07.141Z,17.14
2023-04-22T08:48:13.294Z,17.24
2023-04-22T08:50:15.068Z,17.32
2023-04-22T08:52:16.580Z,17.39
2023-04-22T08:54:18.244Z,17.48
2023-04-22T08:56:20.874Z,17.56
2023-04-22T08:58:23.299Z,17.65
2023-04-22T09:00:24.932Z,17.74
2023-04-22T09:02:28.802Z,17.78
2023-04-22T09:04:30.417Z,17.84
2023-04-22T09:06:33.466Z,17.89
2023-04-22T09:08:35.463Z,17.97
2023-04-22T09:10:38.126Z,18.07
2023-04-22T09:12:41.310Z,18.17
2023-04-22T09:14:43.620Z,18.26
2023-04-22T09:16:48.655Z,18.36
2023-04-22T09:18:50.812Z,18.38
2023-04-22T09:20:55.454Z,18.38
2023-04-22T09:22:58.033Z,18.37
2023-04-22T09:24:59.694Z,18.38
2023-04-22T09:27:03.448Z,18.43
2023-04-22T09:29:09.271Z,18.49
2023-04-22T09:31:14.317Z,18.55
2023-04-22T09:33:17.373Z,18.60
2023-04-22T09:35:32.855Z,18.64
2023-04-22T09:37:46.676Z,18.66
2023-04-22T09:39:51.666Z,18.73
2023-04-22T09:41:55.397Z,18.79
2023-04-22T09:43:58.027Z,18.89
2023-04-22T09:45:59.753Z,18.97
2023-04-22T09:48:09.548Z,19.05
2023-04-22T09:50:11.435Z,19.17
2023-04-22T09:52:24.167Z,19.31
2023-04-22T09:54:25.628Z,19.39
2023-04-22T09:56:48.838Z,19.45
2023-04-22T09:58:53.327Z,19.49
2023-04-22T10:00:57.164Z,19.53
2023-04-22T10:02:59.287Z,19.61
2023-04-22T10:05:01.474Z,19.66
2023-04-22T10:07:03.283Z,19.74
2023-04-22T10:09:05.756Z,19.81
2023-04-22T10:11:08.700Z,19.91
2023-04-22T10:13:11.259Z,20.05
2023-04-22T10:15:12.762Z,20.16
2023-04-22T10:17:14.563Z,20.26
2023-04-22T10:19:25.787Z,20.42
2023-04-22T10:21:28.779Z,20.56
2023-04-22T10:23:32.956Z,20.69
2023-04-22T10:25:34.428Z,20.83
2023-04-22T10:27:35.893Z,21.01
2023-04-22T10:29:40.205Z,21.21
2023-04-22T10:31:41.877Z,21.39
2023-04-22T10:33:43.375Z,21.54
2023-04-22T10:36:10.457Z,21.72
2023-04-22T10:38:11.997Z,21.84
2023-04-22T10:40:18.288Z,21.85
2023-04-22T10:42:20.516Z,22.02
2023-04-22T10:44:22.971Z,22.20
2023-04-22T10:46:34.709Z,22.19
2023-04-22T10:48:50.673Z,22.17
2023-04-22T10:50:53.076Z,22.29
2023-04-22T10:53:21.832Z,22.29
2023-04-22T10:55:24.397Z,22.29
2023-04-22T10:57:36.300Z,22.29
2023-04-22T10:59:48.811Z,22.53
2023-04-22T11:01:52.813Z,22.98
2023-04-22T11:03:54.575Z,23.53
2023-04-22T11:06:16.997Z,24.01
2023-04-22T11:08:20.782Z,24.26
2023-04-22T11:10:44.073Z,24.24
2023-04-22T11:12:46.112Z,24.40
2023-04-22T11:14:50.059Z,24.79
2023-04-22T11:16:51.931Z,25.21
2023-04-22T11:18:55.815Z,25.48
2023-04-22T11:21:03.078Z,25.63
2023-04-22T11:23:04.993Z,25.19
2023-04-22T11:25:07.420Z,25.07
2023-04-22T11:27:08.920Z,24.92
2023-04-22T11:29:10.512Z,24.76
2023-04-22T11:31:12.128Z,24.82
2023-04-22T11:33:15.527Z,25.22
2023-04-22T11:35:22.616Z,25.40
2023-04-22T11:37:24.722Z,25.47
2023-04-22T11:39:35.614Z,25.14
2023-04-22T11:41:40.315Z,25.06
2023-04-22T11:43:48.243Z,25.22
2023-04-22T11:45:49.954Z,25.48
2023-04-22T11:47:52.406Z,25.88
2023-04-22T11:50:04.613Z,26.38
2023-04-22T11:52:06.176Z,26.80
2023-04-22T11:54:09.646Z,26.95
2023-04-22T11:56:12.899Z,26.63
2023-04-22T11:58:24.549Z,26.24
2023-04-22T12:00:45.370Z,26.35
2023-04-22T12:03:20.635Z,26.35
2023-04-22T12:05:32.622Z,26.66
2023-04-22T12:07:34.272Z,26.99
2023-04-22T12:09:35.795Z,26.76
2023-04-22T12:11:38.913Z,26.75
2023-04-22T12:13:43.638Z,26.94
2023-04-22T12:15:45.387Z,26.95
2023-04-22T12:17:46.973Z,27.19
2023-04-22T12:19:48.556Z,27.51
2023-04-22T12:21:50.004Z,27.36
2023-04-22T12:23:55.356Z,27.21
2023-04-22T12:25:57.298Z,26.83
2023-04-22T12:27:58.789Z,26.48
2023-04-22T12:30:00.412Z,26.23
2023-04-22T12:32:01.915Z,26.20
2023-04-22T12:34:04.218Z,26.26
2023-04-22T12:36:06.802Z,26.12
2023-04-22T12:38:08.492Z,25.96
2023-04-22T12:40:11.580Z,26.04
2023-04-22T12:42:13.184Z,26.01
2023-04-22T12:44:14.646Z,26.03
2023-04-22T12:46:16.710Z,26.20
2023-04-22T12:48:18.310Z,26.22
2023-04-22T12:50:20.528Z,25.98
2023-04-22T12:52:22.016Z,25.87
2023-04-22T12:54:24.077Z,25.73
2023-04-22T12:56:26.500Z,25.51
2023-04-22T12:58:28.019Z,25.48
2023-04-22T13:00:29.843Z,25.46
2023-04-22T13:02:31.514Z,25.47
2023-04-22T13:04:33.157Z,25.16
2023-04-22T13:06:34.793Z,24.92
2023-04-22T13:08:36.299Z,24.86
2023-04-22T13:10:37.926Z,24.88
2023-04-22T13:12:40.790Z,25.01
2023-04-22T13:14:42.713Z,24.98
2023-04-22T13:16:44.717Z,25.17
2023-04-22T13:18:46.295Z,25.45
2023-04-22T13:20:47.835Z,25.43
2023-04-22T13:22:50.624Z,25.46
2023-04-22T13:24:53.308Z,25.53
2023-04-22T13:26:54.871Z,25.34
2023-04-22T13:28:56.334Z,25.08
2023-04-22T13:30:57.833Z,25.02
2023-04-22T13:32:59.308Z,25.21
2023-04-22T13:35:02.889Z,25.62
2023-04-22T13:37:04.674Z,25.98
2023-04-22T13:39:06.426Z,26.28
2023-04-22T13:41:07.901Z,26.15
2023-04-22T13:43:09.971Z,25.93
2023-04-22T13:45:11.492Z,25.88
2023-04-22T13:47:12.988Z,25.74
2023-04-22T13:49:14.491Z,25.73
2023-04-22T13:51:16.001Z,25.60
2023-04-22T13:53:17.603Z,25.48
2023-04-22T13:55:19.096Z,25.55
2023-04-22T13:57:20.675Z,25.58
2023-04-22T13:59:22.260Z,25.60
2023-04-22T14:01:25.253Z,25.53
2023-04-22T14:03:28.341Z,25.58
2023-04-22T14:05:30.204Z,25.52
2023-04-22T14:07:31.676Z,25.39
2023-04-22T14:09:34.504Z,25.39
2023-04-22T14:11:36.251Z,25.39
2023-04-22T14:13:38.662Z,25.31
2023-04-22T14:15:40.287Z,25.17
2023-04-22T14:17:41.857Z,25.26
2023-04-22T14:19:44.894Z,25.36
2023-04-22T14:21:46.691Z,25.58
2023-04-22T14:23:48.161Z,25.61
2023-04-22T14:25:49.663Z,25.28
2023-04-22T14:27:51.363Z,25.04
2023-04-22T14:29:53.236Z,24.83
2023-04-22T14:31:54.761Z,24.57
2023-04-22T14:33:56.541Z,24.38
2023-04-22T14:35:58.070Z,24.24
2023-04-22T14:37:59.694Z,24.21
2023-04-22T14:40:01.384Z,24.29
2023-04-22T14:42:03.831Z,24.36
2023-04-22T14:44:05.560Z,24.46
2023-04-22T14:46:07.037Z,24.31
2023-04-22T14:48:08.623Z,24.09
2023-04-22T14:50:10.439Z,23.89
2023-04-22T14:52:12.004Z,23.77
2023-04-22T14:54:13.783Z,23.65
2023-04-22T14:56:15.478Z,23.56
2023-04-22T14:58:16.974Z,23.52
2023-04-22T15:00:18.785Z,23.55
2023-04-22T15:02:20.415Z,23.53
2023-04-22T15:04:22.197Z,23.50
2023-04-22T15:06:24.093Z,23.59
2023-04-22T15:08:25.898Z,23.54
2023-04-22T15:10:28.124Z,23.57
2023-04-22T15:12:29.594Z,23.82
2023-04-22T15:14:32.253Z,24.25
2023-04-22T15:16:33.850Z,24.59
2023-04-22T15:18:35.854Z,24.82
2023-04-22T15:20:37.555Z,25.11
2023-04-22T15:22:41.269Z,25.45
2023-04-22T15:24:42.760Z,25.83
2023-04-22T15:26:44.345Z,26.06
2023-04-22T15:28:45.928Z,26.22
2023-04-22T15:30:48.682Z,26.25
2023-04-22T15:32:50.275Z,26.23
2023-04-22T15:34:51.783Z,25.97
2023-04-22T15:36:53.528Z,25.61
2023-04-22T15:38:56.345Z,25.35
2023-04-22T15:40:57.922Z,25.17
2023-04-22T15:42:59.365Z,24.98
2023-04-22T15:45:01.774Z,24.95
2023-04-22T15:47:04.057Z,24.87
2023-04-22T15:49:05.645Z,24.76
2023-04-22T15:51:07.388Z,24.79
2023-04-22T15:53:09.218Z,24.89
2023-04-22T15:55:10.870Z,24.99
2023-04-22T15:57:12.382Z,24.97
2023-04-22T15:59:13.899Z,24.94
2023-04-22T16:01:19.511Z,25.02
2023-04-22T16:03:21.755Z,25.23
2023-04-22T16:05:24.963Z,25.27
2023-04-22T16:07:27.433Z,25.46
2023-04-22T16:09:28.994Z,25.52
2023-04-22T16:11:30.580Z,25.46
2023-04-22T16:13:32.093Z,25.32
2023-04-22T16:15:33.685Z,25.18
2023-04-22T16:17:35.720Z,25.18
2023-04-22T16:19:37.481Z,25.13
2023-04-22T16:21:39.094Z,24.97
2023-04-22T16:23:40.795Z,24.79
2023-04-22T16:25:42.370Z,24.63
2023-04-22T16:27:44.044Z,24.45
2023-04-22T16:29:46.086Z,24.31
2023-04-22T16:31:47.669Z,24.05
2023-04-22T16:33:51.304Z,23.92
2023-04-22T16:35:52.764Z,23.85
2023-04-22T16:37:54.308Z,23.73
2023-04-22T16:39:56.295Z,23.58
2023-04-22T16:41:58.638Z,23.43
2023-04-22T16:44:01.040Z,23.41
2023-04-22T16:46:03.753Z,23.28
2023-04-22T16:48:05.418Z,23.24
2023-04-22T16:50:07.632Z,23.18
2023-04-22T16:52:09.189Z,23.15
2023-04-22T16:54:10.676Z,23.08
2023-04-22T16:56:12.160Z,23.02
2023-04-22T16:58:13.710Z,22.94
2023-04-22T17:00:15.683Z,22.86
2023-04-22T17:02:17.475Z,22.78
2023-04-22T17:04:19.263Z,22.77
2023-04-22T17:06:21.589Z,22.74
2023-04-22T17:08:23.148Z,22.66
2023-04-22T17:10:24.608Z,22.63
2023-04-22T17:12:26.103Z,22.61
2023-04-22T17:14:27.640Z,22.56
2023-04-22T17:16:29.539Z,22.52
2023-04-22T17:18:31.116Z,22.44
2023-04-22T17:20:32.678Z,22.40
2023-04-22T17:22:34.229Z,22.35
2023-04-22T17:24:35.887Z,22.31
2023-04-22T17:26:37.635Z,22.25
2023-04-22T17:28:39.180Z,22.19
2023-04-22T17:30:40.823Z,22.17
2023-04-22T17:32:42.411Z,22.10
2023-04-22T17:34:43.898Z,22.04
2023-04-22T17:36:45.358Z,21.96
2023-04-22T17:38:46.880Z,21.91
2023-04-22T17:40:48.432Z,21.83
2023-04-22T17:42:50.001Z,21.75
2023-04-22T17:44:51.453Z,21.56
2023-04-22T17:46:53.055Z,21.26
2023-04-22T17:48:54.602Z,20.92
2023-04-22T17:50:56.123Z,20.56
2023-04-22T17:52:58.134Z,20.33
2023-04-22T17:55:00.004Z,19.84
2023-04-22T17:57:02.230Z,19.05
2023-04-22T17:59:03.677Z,18.39
2023-04-22T18:01:06.444Z,17.98
2023-04-22T18:03:08.328Z,17.61
2023-04-22T18:05:10.175Z,17.41
2023-04-22T18:07:11.688Z,17.19
2023-04-22T18:09:13.202Z,17.06
2023-04-22T18:11:14.746Z,16.99
2023-04-22T18:13:16.243Z,16.92
2023-04-22T18:15:17.917Z,16.88
2023-04-22T18:17:20.182Z,16.86
2023-04-22T18:19:21.660Z,16.86
2023-04-22T18:21:23.220Z,16.88
2023-04-22T18:23:24.754Z,16.86
2023-04-22T18:25:26.894Z,16.80
2023-04-22T18:27:28.946Z,16.77
2023-04-22T18:29:30.485Z,16.71
2023-04-22T18:31:32.010Z,16.77
2023-04-22T18:33:33.978Z,16.66
2023-04-22T18:35:35.753Z,16.61
2023-04-22T18:37:37.227Z,16.56
2023-04-22T18:39:39.654Z,16.53
2023-04-22T18:41:42.781Z,16.47
2023-04-22T18:43:44.368Z,16.44
2023-04-22T18:45:46.413Z,16.38
2023-04-22T18:47:47.931Z,16.34
2023-04-22T18:49:49.414Z,16.26
2023-04-22T18:51:50.953Z,16.19
2023-04-22T18:53:52.450Z,16.23
2023-04-22T18:55:53.976Z,16.17
2023-04-22T18:57:55.618Z,16.16
2023-04-22T18:59:57.123Z,16.14
2023-04-22T19:01:58.652Z,16.13
2023-04-22T19:04:01.708Z,16.21
2023-04-22T19:06:03.798Z,16.17
2023-04-22T19:08:05.369Z,16.10
2023-04-22T19:10:07.892Z,16.05
2023-04-22T19:12:14.625Z,15.98
2023-04-22T19:14:16.179Z,15.92
2023-04-22T19:16:18.117Z,15.86
2023-04-22T19:18:19.641Z,15.83
2023-04-22T19:20:21.093Z,15.77
2023-04-22T19:22:22.637Z,15.77
2023-04-22T19:24:24.164Z,15.70
2023-04-22T19:26:28.866Z,15.64
2023-04-22T19:28:30.928Z,15.58
2023-04-22T19:30:32.425Z,15.55
2023-04-22T19:32:34.120Z,15.52
2023-04-22T19:34:36.776Z,15.50
2023-04-22T19:36:38.362Z,15.51
2023-04-22T19:38:39.963Z,15.50
2023-04-22T19:40:41.742Z,15.47
2023-04-22T19:42:43.294Z,15.44
2023-04-22T19:44:46.766Z,15.44
2023-04-22T19:46:48.484Z,15.42
2023-04-22T19:48:51.330Z,15.45
2023-04-22T19:50:53.577Z,15.49
2023-04-22T19:53:03.479Z,15.51
2023-04-22T19:55:10.075Z,15.50
2023-04-22T19:57:12.168Z,15.50
2023-04-22T19:59:14.271Z,15.53
2023-04-22T20:01:16.059Z,15.60
2023-04-22T20:03:17.874Z,15.67
2023-04-22T20:05:20.054Z,15.73
2023-04-22T20:07:21.896Z,15.76
2023-04-22T20:09:23.957Z,15.73
2023-04-22T20:11:29.485Z,15.70
2023-04-22T20:13:32.451Z,15.74
2023-04-22T20:15:34.210Z,15.76
2023-04-22T20:17:38.617Z,15.76
2023-04-22T20:19:40.845Z,15.75
2023-04-22T20:21:43.219Z,15.77
2023-04-22T20:23:45.860Z,15.76
2023-04-22T20:25:47.701Z,15.76
2023-04-22T20:27:49.281Z,15.78
2023-04-22T20:29:51.420Z,15.77
2023-04-22T20:31:53.112Z,15.79
2023-04-22T20:33:54.693Z,15.77
2023-04-22T20:35:56.960Z,15.75
2023-04-22T20:38:00.305Z,15.70
2023-04-22T20:40:04.898Z,15.67
2023-04-22T20:42:06.893Z,15.68
2023-04-22T20:44:08.518Z,15.71
2023-04-22T20:46:10.013Z,15.73
2023-04-22T20:48:11.657Z,15.74
2023-04-22T20:50:13.384Z,15.74
2023-04-22T20:52:15.030Z,15.74
2023-04-22T20:54:27.772Z,15.75
2023-04-22T20:56:30.657Z,15.74
2023-04-22T20:58:33.283Z,15.67
2023-04-22T21:00:34.834Z,15.62
2023-04-22T21:02:37.664Z,15.62
2023-04-22T21:04:40.411Z,15.63
2023-04-22T21:06:45.254Z,15.62
2023-04-22T21:08:50.152Z,15.62
2023-04-22T21:10:54.714Z,15.60
2023-04-22T21:12:56.405Z,15.58
2023-04-22T21:14:58.261Z,15.54
2023-04-22T21:17:03.828Z,15.53
2023-04-22T21:19:07.049Z,15.50
2023-04-22T21:21:10.003Z,15.47
2023-04-22T21:23:13.741Z,15.45
2023-04-22T21:25:21.437Z,15.43
2023-04-22T21:27:23.190Z,15.38
2023-04-22T21:29:25.246Z,15.34
2023-04-22T21:31:27.664Z,15.30
2023-04-22T21:33:29.567Z,15.27
2023-04-22T21:35:31.242Z,15.24
2023-04-22T21:37:33.178Z,15.21
2023-04-22T21:39:34.809Z,15.18
2023-04-22T21:41:36.423Z,15.18
2023-04-22T21:43:37.868Z,15.16
2023-04-22T21:45:39.512Z,15.14
2023-04-22T21:47:41.184Z,15.14
2023-04-22T21:49:43.159Z,15.11
2023-04-22T21:51:44.664Z,15.08
2023-04-22T21:53:46.558Z,15.05
2023-04-22T21:55:48.105Z,15.00
2023-04-22T21:57:49.636Z,14.96
2023-04-22T21:59:51.096Z,14.97
2023-04-22T22:01:53.004Z,14.93
2023-04-22T22:03:54.917Z,14.80
2023-04-22T22:05:57.109Z,14.76
2023-04-22T22:07:58.629Z,14.72
2023-04-22T22:10:00.406Z,14.65
2023-04-22T22:12:01.911Z,14.60
2023-04-22T22:14:03.458Z,14.59
2023-04-22T22:16:05.378Z,14.59
2023-04-22T22:18:07.379Z,14.56
2023-04-22T22:20:11.271Z,14.51
2023-04-22T22:22:12.722Z,14.48
2023-04-22T22:24:14.217Z,14.50
2023-04-22T22:26:15.940Z,14.51
2023-04-22T22:28:17.456Z,14.49
2023-04-22T22:30:21.396Z,14.47
2023-04-22T22:32:22.846Z,14.41
2023-04-22T22:34:24.319Z,14.40
2023-04-22T22:36:25.905Z,14.39
2023-04-22T22:38:27.499Z,14.41
2023-04-22T22:40:29.109Z,14.41
2023-04-22T22:42:30.716Z,14.40
2023-04-22T22:44:32.198Z,14.39
2023-04-22T22:46:33.781Z,14.33
2023-04-22T22:48:35.272Z,14.32
2023-04-22T22:50:37.088Z,14.31
2023-04-22T22:52:38.797Z,14.30
2023-04-22T22:54:40.817Z,14.34
2023-04-22T22:56:42.556Z,14.35
2023-04-22T22:58:46.046Z,14.31
2023-04-22T23:00:47.619Z,14.29
2023-04-22T23:02:49.279Z,14.27
2023-04-22T23:04:51.260Z,14.23
2023-04-22T23:06:53.263Z,14.25
2023-04-22T23:08:54.730Z,14.25
2023-04-22T23:10:56.468Z,14.20
2023-04-22T23:12:57.918Z,14.19
2023-04-22T23:14:59.528Z,14.14
2023-04-22T23:17:01.234Z,14.13
2023-04-22T23:19:03.267Z,14.09
2023-04-22T23:21:06.567Z,14.10
2023-04-22T23:23:08.650Z,14.08
2023-04-22T23:25:11.115Z,14.06
2023-04-22T23:27:13.323Z,13.98
2023-04-22T23:29:15.045Z,13.92
2023-04-22T23:31:19.615Z,13.86
2023-04-22T23:33:24.765Z,13.80
2023-04-22T23:35:27.511Z,13.75
2023-04-22T23:37:29.679Z,13.68
2023-04-22T23:39:31.232Z,13.64
2023-04-22T23:41:33.573Z,13.58
2023-04-22T23:43:35.084Z,13.52
2023-04-22T23:45:36.564Z,13.49
2023-04-22T23:47:38.109Z,13.43
2023-04-22T23:49:39.630Z,13.42
2023-04-22T23:51:42.674Z,13.38
2023-04-22T23:53:45.368Z,13.32
2023-04-22T23:55:47.634Z,13.27
2023-04-22T23:57:50.705Z,13.20
2023-04-22T23:59:52.458Z,13.13
